sensor_id;sensor_type;location;lat;lon;timestamp;temperature;humidity
8820;DHT22;4446;50.876;4.736;2024-03-23T00:54:56;6.10;99.90
8820;DHT22;4446;50.876;4.736;2024-03-23T00:57:22;6.10;99.90
8820;DHT22;4446;50.876;4.736;2024-03-23T00:59:49;6.10;99.90
8820;DHT22;4446;50.876;4.736;2024-03-23T01:02:15;6.10;99.90
8820;DHT22;4446;50.876;4.736;2024-03-23T01:04:42;6.10;99.90
8820;DHT22;4446;50.876;4.736;2024-03-23T01:07:08;6.10;99.90
8820;DHT22;4446;50.876;4.736;2024-03-23T01:09:35;6.10;99.90
8820;DHT22;4446;50.876;4.736;2024-03-23T01:12:03;6.10;99.90
8820;DHT22;4446;50.876;4.736;2024-03-23T01:14:30;6.10;99.90
8820;DHT22;4446;50.876;4.736;2024-03-23T01:16:56;6.20;99.90
8820;DHT22;4446;50.876;4.736;2024-03-23T01:19:23;6.30;99.90
8820;DHT22;4446;50.876;4.736;2024-03-23T01:21:49;6.30;99.90
8820;DHT22;4446;50.876;4.736;2024-03-23T01:24:16;6.30;99.90
8820;DHT22;4446;50.876;4.736;2024-03-23T01:26:42;6.30;99.90
8820;DHT22;4446;50.876;4.736;2024-03-23T01:29:10;6.30;99.90
8820;DHT22;4446;50.876;4.736;2024-03-23T01:31:37;6.40;99.90
8820;DHT22;4446;50.876;4.736;2024-03-23T01:34:04;6.40;99.90
8820;DHT22;4446;50.876;4.736;2024-03-23T01:36:29;6.40;99.90
8820;DHT22;4446;50.876;4.736;2024-03-23T01:38:56;6.30;99.90
8820;DHT22;4446;50.876;4.736;2024-03-23T01:41:24;6.30;99.90
8820;DHT22;4446;50.876;4.736;2024-03-23T01:43:51;6.30;99.90
8820;DHT22;4446;50.876;4.736;2024-03-23T01:46:18;6.30;99.90
8820;DHT22;4446;50.876;4.736;2024-03-23T01:48:46;6.20;99.90
8820;DHT22;4446;50.876;4.736;2024-03-23T01:51:12;6.20;99.90
8820;DHT22;4446;50.876;4.736;2024-03-23T01:53:40;6.20;99.90
8820;DHT22;4446;50.876;4.736;2024-03-23T01:56:06;6.20;99.90
8820;DHT22;4446;50.876;4.736;2024-03-23T01:58:33;6.20;99.90
8820;DHT22;4446;50.876;4.736;2024-03-23T02:00:59;6.30;99.90
8820;DHT22;4446;50.876;4.736;2024-03-23T02:03:28;6.30;99.90
8820;DHT22;4446;50.876;4.736;2024-03-23T02:05:54;6.20;99.90
8820;DHT22;4446;50.876;4.736;2024-03-23T02:08:23;6.20;99.90
8820;DHT22;4446;50.876;4.736;2024-03-23T02:10:49;6.10;99.90
8820;DHT22;4446;50.876;4.736;2024-03-23T02:13:18;6.10;99.90
8820;DHT22;4446;50.876;4.736;2024-03-23T02:15:44;6.00;99.90
8820;DHT22;4446;50.876;4.736;2024-03-23T02:18:11;5.90;99.90
8820;DHT22;4446;50.876;4.736;2024-03-23T02:20:39;5.80;99.90
8820;DHT22;4446;50.876;4.736;2024-03-23T02:23:13;5.70;99.90
8820;DHT22;4446;50.876;4.736;2024-03-23T02:25:39;5.60;99.90
8820;DHT22;4446;50.876;4.736;2024-03-23T02:28:06;5.50;99.90
8820;DHT22;4446;50.876;4.736;2024-03-23T02:30:32;5.50;99.90
8820;DHT22;4446;50.876;4.736;2024-03-23T02:32:59;5.60;99.90
8820;DHT22;4446;50.876;4.736;2024-03-23T02:35:25;5.60;99.90
8820;DHT22;4446;50.876;4.736;2024-03-23T02:37:52;5.70;99.90
8820;DHT22;4446;50.876;4.736;2024-03-23T02:40:20;5.70;99.90
8820;DHT22;4446;50.876;4.736;2024-03-23T02:42:47;5.70;99.90
8820;DHT22;4446;50.876;4.736;2024-03-23T02:45:13;5.70;99.90
8820;DHT22;4446;50.876;4.736;2024-03-23T02:47:40;5.80;99.90
8820;DHT22;4446;50.876;4.736;2024-03-23T02:50:07;5.90;99.90
8820;DHT22;4446;50.876;4.736;2024-03-23T02:52:34;5.90;99.90
8820;DHT22;4446;50.876;4.736;2024-03-23T02:55:00;5.90;99.90
8820;DHT22;4446;50.876;4.736;2024-03-23T02:57:30;6.00;99.90
8820;DHT22;4446;50.876;4.736;2024-03-23T02:59:56;6.00;99.90
8820;DHT22;4446;50.876;4.736;2024-03-23T03:02:23;6.00;99.90
8820;DHT22;4446;50.876;4.736;2024-03-23T03:04:49;6.10;99.90
8820;DHT22;4446;50.876;4.736;2024-03-23T03:07:16;6.10;99.90
8820;DHT22;4446;50.876;4.736;2024-03-23T03:09:42;6.10;99.90
8820;DHT22;4446;50.876;4.736;2024-03-23T03:12:09;6.20;99.90
8820;DHT22;4446;50.876;4.736;2024-03-23T03:14:36;6.10;99.90
8820;DHT22;4446;50.876;4.736;2024-03-23T03:17:03;6.00;99.90
8820;DHT22;4446;50.876;4.736;2024-03-23T03:19:30;6.10;99.90
8820;DHT22;4446;50.876;4.736;2024-03-23T03:21:58;6.10;99.90
8820;DHT22;4446;50.876;4.736;2024-03-23T03:24:23;6.20;99.90
8820;DHT22;4446;50.876;4.736;2024-03-23T03:26:50;6.20;99.90
8820;DHT22;4446;50.876;4.736;2024-03-23T03:29:16;6.20;99.90
8820;DHT22;4446;50.876;4.736;2024-03-23T03:31:45;6.20;99.90
8820;DHT22;4446;50.876;4.736;2024-03-23T03:34:11;6.20;99.90
8820;DHT22;4446;50.876;4.736;2024-03-23T03:36:38;6.20;99.90
8820;DHT22;4446;50.876;4.736;2024-03-23T03:39:04;6.20;99.90
8820;DHT22;4446;50.876;4.736;2024-03-23T03:41:32;6.20;99.90
8820;DHT22;4446;50.876;4.736;2024-03-23T03:43:58;6.20;99.90
8820;DHT22;4446;50.876;4.736;2024-03-23T03:46:27;6.10;99.90
8820;DHT22;4446;50.876;4.736;2024-03-23T03:48:55;6.10;99.90
8820;DHT22;4446;50.876;4.736;2024-03-23T03:51:22;6.00;99.90
8820;DHT22;4446;50.876;4.736;2024-03-23T03:53:48;6.10;99.90
8820;DHT22;4446;50.876;4.736;2024-03-23T03:56:15;6.00;99.90
8820;DHT22;4446;50.876;4.736;2024-03-23T03:58:41;5.90;99.90
8820;DHT22;4446;50.876;4.736;2024-03-23T04:01:08;5.80;99.90
8820;DHT22;4446;50.876;4.736;2024-03-23T04:03:34;5.80;99.90
8820;DHT22;4446;50.876;4.736;2024-03-23T04:06:03;5.80;99.90
8820;DHT22;4446;50.876;4.736;2024-03-23T04:08:29;5.70;99.90
8820;DHT22;4446;50.876;4.736;2024-03-23T04:10:56;5.80;99.90
8820;DHT22;4446;50.876;4.736;2024-03-23T04:13:22;5.70;99.90
8820;DHT22;4446;50.876;4.736;2024-03-23T04:15:53;5.70;99.90
8820;DHT22;4446;50.876;4.736;2024-03-23T04:18:19;5.70;99.90
8820;DHT22;4446;50.876;4.736;2024-03-23T04:20:47;5.70;99.90
8820;DHT22;4446;50.876;4.736;2024-03-23T04:23:14;5.70;99.90
8820;DHT22;4446;50.876;4.736;2024-03-23T04:25:41;5.80;99.90
8820;DHT22;4446;50.876;4.736;2024-03-23T04:28:07;5.80;99.90
8820;DHT22;4446;50.876;4.736;2024-03-23T04:30:34;5.70;99.90
8820;DHT22;4446;50.876;4.736;2024-03-23T04:33:00;5.70;99.90
8820;DHT22;4446;50.876;4.736;2024-03-23T04:35:27;5.80;99.90
8820;DHT22;4446;50.876;4.736;2024-03-23T04:37:53;5.80;99.90
8820;DHT22;4446;50.876;4.736;2024-03-23T04:40:22;5.80;99.90
8820;DHT22;4446;50.876;4.736;2024-03-23T04:42:49;5.80;99.90
8820;DHT22;4446;50.876;4.736;2024-03-23T04:45:16;5.80;99.90
8820;DHT22;4446;50.876;4.736;2024-03-23T04:47:43;5.80;99.90
8820;DHT22;4446;50.876;4.736;2024-03-23T04:50:10;5.80;99.90
8820;DHT22;4446;50.876;4.736;2024-03-23T04:52:36;5.90;99.90
8820;DHT22;4446;50.876;4.736;2024-03-23T04:55:04;6.00;99.90
8820;DHT22;4446;50.876;4.736;2024-03-23T04:57:32;6.00;99.90
8820;DHT22;4446;50.876;4.736;2024-03-23T04:59:58;6.10;99.90
8820;DHT22;4446;50.876;4.736;2024-03-23T05:02:25;6.10;99.90
8820;DHT22;4446;50.876;4.736;2024-03-23T05:04:52;6.10;99.90
8820;DHT22;4446;50.876;4.736;2024-03-23T05:07:18;6.10;99.90
8820;DHT22;4446;50.876;4.736;2024-03-23T05:09:46;6.10;99.90
8820;DHT22;4446;50.876;4.736;2024-03-23T05:12:12;6.10;99.90
8820;DHT22;4446;50.876;4.736;2024-03-23T05:14:40;6.10;99.90
8820;DHT22;4446;50.876;4.736;2024-03-23T05:17:06;6.00;99.90
8820;DHT22;4446;50.876;4.736;2024-03-23T05:19:33;6.00;99.90
8820;DHT22;4446;50.876;4.736;2024-03-23T05:21:59;5.90;99.90
8820;DHT22;4446;50.876;4.736;2024-03-23T05:24:26;5.80;99.90
8820;DHT22;4446;50.876;4.736;2024-03-23T05:26:52;5.80;99.90
8820;DHT22;4446;50.876;4.736;2024-03-23T05:29:19;5.70;99.90
8820;DHT22;4446;50.876;4.736;2024-03-23T05:31:50;5.60;99.90
8820;DHT22;4446;50.876;4.736;2024-03-23T05:34:18;5.60;99.90
8820;DHT22;4446;50.876;4.736;2024-03-23T05:36:44;5.50;99.90
8820;DHT22;4446;50.876;4.736;2024-03-23T05:39:10;5.50;99.90
8820;DHT22;4446;50.876;4.736;2024-03-23T05:41:36;5.50;99.90
8820;DHT22;4446;50.876;4.736;2024-03-23T05:44:04;5.50;99.90
8820;DHT22;4446;50.876;4.736;2024-03-23T05:46:30;5.40;99.90
8820;DHT22;4446;50.876;4.736;2024-03-23T05:49:01;5.40;99.90
8820;DHT22;4446;50.876;4.736;2024-03-23T05:51:28;5.40;99.90
8820;DHT22;4446;50.876;4.736;2024-03-23T05:53:55;5.40;99.90
8820;DHT22;4446;50.876;4.736;2024-03-23T05:56:21;5.40;99.90
8820;DHT22;4446;50.876;4.736;2024-03-23T05:58:48;5.40;99.90
8820;DHT22;4446;50.876;4.736;2024-03-23T06:01:14;5.40;99.90
8820;DHT22;4446;50.876;4.736;2024-03-23T06:03:41;5.40;99.90
8820;DHT22;4446;50.876;4.736;2024-03-23T06:06:10;5.40;99.90
8820;DHT22;4446;50.876;4.736;2024-03-23T06:08:38;5.50;99.90
8820;DHT22;4446;50.876;4.736;2024-03-23T06:11:04;5.50;99.90
8820;DHT22;4446;50.876;4.736;2024-03-23T06:13:31;5.60;99.90
8820;DHT22;4446;50.876;4.736;2024-03-23T06:15:57;5.70;99.90
8820;DHT22;4446;50.876;4.736;2024-03-23T06:18:25;5.80;99.90
8820;DHT22;4446;50.876;4.736;2024-03-23T06:20:51;5.90;99.90
8820;DHT22;4446;50.876;4.736;2024-03-23T06:23:19;6.00;99.90
8820;DHT22;4446;50.876;4.736;2024-03-23T06:25:46;6.10;99.90
8820;DHT22;4446;50.876;4.736;2024-03-23T06:28:13;6.10;99.90
8820;DHT22;4446;50.876;4.736;2024-03-23T06:30:39;6.10;99.90
8820;DHT22;4446;50.876;4.736;2024-03-23T06:33:06;6.20;99.90
8820;DHT22;4446;50.876;4.736;2024-03-23T06:35:33;6.20;99.90
8820;DHT22;4446;50.876;4.736;2024-03-23T06:37:59;6.20;99.90
8820;DHT22;4446;50.876;4.736;2024-03-23T06:40:28;6.30;99.90
8820;DHT22;4446;50.876;4.736;2024-03-23T06:42:54;6.30;99.90
8820;DHT22;4446;50.876;4.736;2024-03-23T06:45:20;6.30;99.90
8820;DHT22;4446;50.876;4.736;2024-03-23T06:47:49;6.30;99.90
8820;DHT22;4446;50.876;4.736;2024-03-23T06:50:16;6.40;99.90
8820;DHT22;4446;50.876;4.736;2024-03-23T06:52:42;6.50;99.90
8820;DHT22;4446;50.876;4.736;2024-03-23T06:55:09;6.50;99.90
8820;DHT22;4446;50.876;4.736;2024-03-23T06:57:36;6.50;99.90
8820;DHT22;4446;50.876;4.736;2024-03-23T07:00:04;6.50;99.90
8820;DHT22;4446;50.876;4.736;2024-03-23T07:02:30;6.50;99.90
8820;DHT22;4446;50.876;4.736;2024-03-23T07:04:57;6.50;99.90
8820;DHT22;4446;50.876;4.736;2024-03-23T07:07:23;6.60;99.90
8820;DHT22;4446;50.876;4.736;2024-03-23T07:09:50;6.60;99.90
8820;DHT22;4446;50.876;4.736;2024-03-23T07:12:18;6.70;99.90
8820;DHT22;4446;50.876;4.736;2024-03-23T07:14:46;6.70;99.90
8820;DHT22;4446;50.876;4.736;2024-03-23T07:17:12;6.70;99.90
8820;DHT22;4446;50.876;4.736;2024-03-23T07:19:39;6.70;99.90
8820;DHT22;4446;50.876;4.736;2024-03-23T07:22:05;6.80;99.90
8820;DHT22;4446;50.876;4.736;2024-03-23T07:24:32;6.90;99.90
8820;DHT22;4446;50.876;4.736;2024-03-23T07:26:58;7.10;99.90
8820;DHT22;4446;50.876;4.736;2024-03-23T07:29:25;7.30;99.90
8820;DHT22;4446;50.876;4.736;2024-03-23T07:31:53;7.30;99.90
8820;DHT22;4446;50.876;4.736;2024-03-23T07:34:19;7.50;99.90
8820;DHT22;4446;50.876;4.736;2024-03-23T07:36:45;7.40;99.90
8820;DHT22;4446;50.876;4.736;2024-03-23T07:39:12;7.30;99.90
8820;DHT22;4446;50.876;4.736;2024-03-23T07:41:38;7.20;99.90
8820;DHT22;4446;50.876;4.736;2024-03-23T07:44:05;7.10;99.90
8820;DHT22;4446;50.876;4.736;2024-03-23T07:46:31;6.90;99.90
8820;DHT22;4446;50.876;4.736;2024-03-23T07:49:00;6.80;99.90
8820;DHT22;4446;50.876;4.736;2024-03-23T07:51:26;6.60;99.90
8820;DHT22;4446;50.876;4.736;2024-03-23T07:53:53;6.50;99.90
8820;DHT22;4446;50.876;4.736;2024-03-23T07:56:19;6.40;99.90
8820;DHT22;4446;50.876;4.736;2024-03-23T07:58:47;6.30;99.90
8820;DHT22;4446;50.876;4.736;2024-03-23T08:01:15;6.30;99.90
8820;DHT22;4446;50.876;4.736;2024-03-23T08:03:43;6.20;99.90
8820;DHT22;4446;50.876;4.736;2024-03-23T08:06:12;6.20;99.90
8820;DHT22;4446;50.876;4.736;2024-03-23T08:08:41;6.30;99.90
8820;DHT22;4446;50.876;4.736;2024-03-23T08:11:07;6.20;99.90
8820;DHT22;4446;50.876;4.736;2024-03-23T08:13:35;6.30;99.90
8820;DHT22;4446;50.876;4.736;2024-03-23T08:16:02;6.50;99.90
8820;DHT22;4446;50.876;4.736;2024-03-23T08:18:30;6.60;99.90
8820;DHT22;4446;50.876;4.736;2024-03-23T08:20:57;6.70;99.90
8820;DHT22;4446;50.876;4.736;2024-03-23T08:23:26;6.70;99.90
8820;DHT22;4446;50.876;4.736;2024-03-23T08:25:57;6.70;99.90
8820;DHT22;4446;50.876;4.736;2024-03-23T08:28:24;6.80;99.90
8820;DHT22;4446;50.876;4.736;2024-03-23T08:30:50;6.90;99.90
8820;DHT22;4446;50.876;4.736;2024-03-23T08:33:17;7.20;99.90
8820;DHT22;4446;50.876;4.736;2024-03-23T08:35:53;7.40;99.90
8820;DHT22;4446;50.876;4.736;2024-03-23T08:38:20;7.60;99.90
8820;DHT22;4446;50.876;4.736;2024-03-23T08:40:47;7.70;99.90
8820;DHT22;4446;50.876;4.736;2024-03-23T08:43:14;7.80;99.90
8820;DHT22;4446;50.876;4.736;2024-03-23T08:45:40;7.90;99.90
8820;DHT22;4446;50.876;4.736;2024-03-23T08:48:07;7.90;99.90
8820;DHT22;4446;50.876;4.736;2024-03-23T08:50:34;8.00;99.90
8820;DHT22;4446;50.876;4.736;2024-03-23T08:53:01;8.10;99.90
8820;DHT22;4446;50.876;4.736;2024-03-23T08:55:28;8.30;99.90
8820;DHT22;4446;50.876;4.736;2024-03-23T08:57:57;8.30;99.90
8820;DHT22;4446;50.876;4.736;2024-03-23T09:00:23;8.40;99.90
8820;DHT22;4446;50.876;4.736;2024-03-23T09:02:50;8.50;99.90
8820;DHT22;4446;50.876;4.736;2024-03-23T09:05:16;8.60;99.90
8820;DHT22;4446;50.876;4.736;2024-03-23T09:07:43;8.60;99.90
8820;DHT22;4446;50.876;4.736;2024-03-23T09:10:09;8.50;99.90
8820;DHT22;4446;50.876;4.736;2024-03-23T09:12:36;8.60;99.90
8820;DHT22;4446;50.876;4.736;2024-03-23T09:15:04;8.50;99.90
8820;DHT22;4446;50.876;4.736;2024-03-23T09:17:31;8.50;99.90
8820;DHT22;4446;50.876;4.736;2024-03-23T09:19:57;8.50;99.90
8820;DHT22;4446;50.876;4.736;2024-03-23T09:22:24;8.50;99.90
8820;DHT22;4446;50.876;4.736;2024-03-23T09:24:50;8.50;99.90
8820;DHT22;4446;50.876;4.736;2024-03-23T09:27:17;8.50;99.90
8820;DHT22;4446;50.876;4.736;2024-03-23T09:29:43;8.60;99.90
8820;DHT22;4446;50.876;4.736;2024-03-23T09:32:12;8.70;99.90
8820;DHT22;4446;50.876;4.736;2024-03-23T09:34:38;8.80;99.90
8820;DHT22;4446;50.876;4.736;2024-03-23T09:37:05;8.70;99.90
8820;DHT22;4446;50.876;4.736;2024-03-23T09:39:31;8.80;99.90
8820;DHT22;4446;50.876;4.736;2024-03-23T09:41:58;8.70;99.90
8820;DHT22;4446;50.876;4.736;2024-03-23T09:44:24;8.70;99.90
8820;DHT22;4446;50.876;4.736;2024-03-23T09:46:55;8.60;99.90
8820;DHT22;4446;50.876;4.736;2024-03-23T09:49:23;8.50;99.90
8820;DHT22;4446;50.876;4.736;2024-03-23T09:51:50;8.50;99.90
8820;DHT22;4446;50.876;4.736;2024-03-23T09:54:16;8.50;99.90
8820;DHT22;4446;50.876;4.736;2024-03-23T09:56:43;8.60;99.90
8820;DHT22;4446;50.876;4.736;2024-03-23T09:59:09;8.70;99.90
8820;DHT22;4446;50.876;4.736;2024-03-23T10:01:36;8.80;99.90
8820;DHT22;4446;50.876;4.736;2024-03-23T10:04:03;8.80;99.90
8820;DHT22;4446;50.876;4.736;2024-03-23T10:06:32;9.10;99.90
8820;DHT22;4446;50.876;4.736;2024-03-23T10:08:58;9.10;99.90
8820;DHT22;4446;50.876;4.736;2024-03-23T10:11:25;9.30;99.90
8820;DHT22;4446;50.876;4.736;2024-03-23T10:13:54;9.50;99.90
8820;DHT22;4446;50.876;4.736;2024-03-23T10:16:23;9.60;99.90
8820;DHT22;4446;50.876;4.736;2024-03-23T10:18:50;9.70;99.90
8820;DHT22;4446;50.876;4.736;2024-03-23T10:21:18;9.60;99.90
8820;DHT22;4446;50.876;4.736;2024-03-23T10:23:46;9.80;99.90
8820;DHT22;4446;50.876;4.736;2024-03-23T10:26:19;9.70;99.90
8820;DHT22;4446;50.876;4.736;2024-03-23T10:28:54;9.60;99.90
8820;DHT22;4446;50.876;4.736;2024-03-23T10:31:22;9.50;99.90
8820;DHT22;4446;50.876;4.736;2024-03-23T10:33:49;9.40;99.90
8820;DHT22;4446;50.876;4.736;2024-03-23T10:36:16;9.40;99.90
8820;DHT22;4446;50.876;4.736;2024-03-23T10:38:45;9.40;99.90
8820;DHT22;4446;50.876;4.736;2024-03-23T10:41:12;9.20;99.90
8820;DHT22;4446;50.876;4.736;2024-03-23T10:43:38;9.20;99.90
8820;DHT22;4446;50.876;4.736;2024-03-23T10:46:06;9.30;99.90
8820;DHT22;4446;50.876;4.736;2024-03-23T10:48:32;9.40;99.90
8820;DHT22;4446;50.876;4.736;2024-03-23T10:51:00;9.50;99.90
8820;DHT22;4446;50.876;4.736;2024-03-23T10:53:27;9.70;99.90
8820;DHT22;4446;50.876;4.736;2024-03-23T10:55:56;10.10;99.90
8820;DHT22;4446;50.876;4.736;2024-03-23T10:58:25;10.30;99.90
8820;DHT22;4446;50.876;4.736;2024-03-23T11:00:53;10.40;99.90
8820;DHT22;4446;50.876;4.736;2024-03-23T11:03:33;10.10;99.90
8820;DHT22;4446;50.876;4.736;2024-03-23T11:06:01;10.00;99.90
8820;DHT22;4446;50.876;4.736;2024-03-23T11:08:33;10.00;99.90
8820;DHT22;4446;50.876;4.736;2024-03-23T11:11:17;10.10;99.90
8820;DHT22;4446;50.876;4.736;2024-03-23T11:13:44;10.30;99.90
8820;DHT22;4446;50.876;4.736;2024-03-23T11:16:22;10.60;99.90
8820;DHT22;4446;50.876;4.736;2024-03-23T11:18:48;10.90;99.90
8820;DHT22;4446;50.876;4.736;2024-03-23T11:24:15;11.30;99.90
8820;DHT22;4446;50.876;4.736;2024-03-23T11:26:43;11.20;99.90
8820;DHT22;4446;50.876;4.736;2024-03-23T11:29:10;10.90;99.90
8820;DHT22;4446;50.876;4.736;2024-03-23T11:31:37;10.80;99.90
8820;DHT22;4446;50.876;4.736;2024-03-23T11:34:04;10.90;99.90
8820;DHT22;4446;50.876;4.736;2024-03-23T11:36:31;11.00;99.90
8820;DHT22;4446;50.876;4.736;2024-03-23T11:38:57;11.00;99.90
8820;DHT22;4446;50.876;4.736;2024-03-23T11:41:25;11.00;99.90
8820;DHT22;4446;50.876;4.736;2024-03-23T11:43:52;11.10;99.90
8820;DHT22;4446;50.876;4.736;2024-03-23T11:46:22;11.10;99.90
8820;DHT22;4446;50.876;4.736;2024-03-23T11:48:50;11.30;99.90
8820;DHT22;4446;50.876;4.736;2024-03-23T11:51:17;11.40;99.90
8820;DHT22;4446;50.876;4.736;2024-03-23T11:53:44;11.60;99.90
8820;DHT22;4446;50.876;4.736;2024-03-23T11:56:11;11.60;99.90
8820;DHT22;4446;50.876;4.736;2024-03-23T11:58:37;11.50;99.90
8820;DHT22;4446;50.876;4.736;2024-03-23T12:01:10;11.40;99.90
8820;DHT22;4446;50.876;4.736;2024-03-23T12:03:36;11.40;99.90
8820;DHT22;4446;50.876;4.736;2024-03-23T12:06:04;11.30;99.90
8820;DHT22;4446;50.876;4.736;2024-03-23T12:08:32;11.30;99.90
8820;DHT22;4446;50.876;4.736;2024-03-23T12:11:07;11.30;99.90
8820;DHT22;4446;50.876;4.736;2024-03-23T12:13:34;11.20;99.90
8820;DHT22;4446;50.876;4.736;2024-03-23T12:16:11;11.10;99.90
8820;DHT22;4446;50.876;4.736;2024-03-23T12:18:37;10.90;99.90
8820;DHT22;4446;50.876;4.736;2024-03-23T12:21:05;10.90;99.90
8820;DHT22;4446;50.876;4.736;2024-03-23T12:23:31;11.00;99.90
8820;DHT22;4446;50.876;4.736;2024-03-23T12:25:59;11.00;99.90
8820;DHT22;4446;50.876;4.736;2024-03-23T12:28:25;11.00;99.90
8820;DHT22;4446;50.876;4.736;2024-03-23T12:30:52;11.10;99.90
8820;DHT22;4446;50.876;4.736;2024-03-23T12:33:21;11.20;99.90
8820;DHT22;4446;50.876;4.736;2024-03-23T12:35:48;11.10;99.90
8820;DHT22;4446;50.876;4.736;2024-03-23T12:38:15;11.20;99.90
8820;DHT22;4446;50.876;4.736;2024-03-23T12:40:46;11.30;99.90
8820;DHT22;4446;50.876;4.736;2024-03-23T12:43:13;11.60;99.90
8820;DHT22;4446;50.876;4.736;2024-03-23T12:45:40;11.80;99.90
8820;DHT22;4446;50.876;4.736;2024-03-23T12:48:07;11.60;99.90
8820;DHT22;4446;50.876;4.736;2024-03-23T12:50:35;11.20;99.90
8820;DHT22;4446;50.876;4.736;2024-03-23T12:53:01;10.60;99.90
8820;DHT22;4446;50.876;4.736;2024-03-23T12:55:28;10.20;99.90
8820;DHT22;4446;50.876;4.736;2024-03-23T12:57:54;9.80;99.90
8820;DHT22;4446;50.876;4.736;2024-03-23T13:00:22;9.80;99.90
8820;DHT22;4446;50.876;4.736;2024-03-23T13:02:48;9.90;99.90
8820;DHT22;4446;50.876;4.736;2024-03-23T13:05:15;10.00;99.90
8820;DHT22;4446;50.876;4.736;2024-03-23T13:07:42;10.10;99.90
8820;DHT22;4446;50.876;4.736;2024-03-23T13:10:09;10.20;99.90
8820;DHT22;4446;50.876;4.736;2024-03-23T13:12:36;10.40;99.90
8820;DHT22;4446;50.876;4.736;2024-03-23T13:15:03;10.50;99.90
8820;DHT22;4446;50.876;4.736;2024-03-23T13:17:30;10.80;99.90
8820;DHT22;4446;50.876;4.736;2024-03-23T13:20:01;10.90;99.90
8820;DHT22;4446;50.876;4.736;2024-03-23T13:22:28;11.10;99.90
8820;DHT22;4446;50.876;4.736;2024-03-23T13:24:57;11.20;99.90
8820;DHT22;4446;50.876;4.736;2024-03-23T13:27:23;11.30;99.90
8820;DHT22;4446;50.876;4.736;2024-03-23T13:29:50;11.30;99.90
8820;DHT22;4446;50.876;4.736;2024-03-23T13:32:16;11.60;99.90
8820;DHT22;4446;50.876;4.736;2024-03-23T13:34:43;11.70;99.90
8820;DHT22;4446;50.876;4.736;2024-03-23T13:37:09;11.70;99.90
8820;DHT22;4446;50.876;4.736;2024-03-23T13:39:36;11.60;99.90
8820;DHT22;4446;50.876;4.736;2024-03-23T13:42:04;11.40;99.90
8820;DHT22;4446;50.876;4.736;2024-03-23T13:44:31;11.30;99.90
8820;DHT22;4446;50.876;4.736;2024-03-23T13:46:57;11.10;99.90
8820;DHT22;4446;50.876;4.736;2024-03-23T13:49:26;11.00;99.90
8820;DHT22;4446;50.876;4.736;2024-03-23T13:51:52;10.80;99.90
8820;DHT22;4446;50.876;4.736;2024-03-23T13:54:19;10.50;99.90
8820;DHT22;4446;50.876;4.736;2024-03-23T13:56:48;10.20;99.90
8820;DHT22;4446;50.876;4.736;2024-03-23T13:59:17;10.10;99.90
8820;DHT22;4446;50.876;4.736;2024-03-23T14:01:43;10.20;99.90
8820;DHT22;4446;50.876;4.736;2024-03-23T14:04:11;10.30;99.90
8820;DHT22;4446;50.876;4.736;2024-03-23T14:06:37;10.30;99.90
8820;DHT22;4446;50.876;4.736;2024-03-23T14:09:04;10.20;99.90
8820;DHT22;4446;50.876;4.736;2024-03-23T14:11:31;10.10;99.90
8820;DHT22;4446;50.876;4.736;2024-03-23T14:13:58;9.70;99.90
8820;DHT22;4446;50.876;4.736;2024-03-23T14:16:25;9.20;99.90
8820;DHT22;4446;50.876;4.736;2024-03-23T14:18:52;8.70;99.90
8820;DHT22;4446;50.876;4.736;2024-03-23T14:21:18;8.30;99.90
8820;DHT22;4446;50.876;4.736;2024-03-23T14:23:45;8.00;99.90
8820;DHT22;4446;50.876;4.736;2024-03-23T14:26:11;7.80;99.90
8820;DHT22;4446;50.876;4.736;2024-03-23T14:28:38;7.60;99.90
8820;DHT22;4446;50.876;4.736;2024-03-23T14:31:05;7.60;99.90
8820;DHT22;4446;50.876;4.736;2024-03-23T14:33:37;7.50;99.90
8820;DHT22;4446;50.876;4.736;2024-03-23T14:36:04;7.50;99.90
8820;DHT22;4446;50.876;4.736;2024-03-23T14:38:31;7.30;99.90
8820;DHT22;4446;50.876;4.736;2024-03-23T14:40:58;7.20;99.90
8820;DHT22;4446;50.876;4.736;2024-03-23T14:43:25;7.10;99.90
8820;DHT22;4446;50.876;4.736;2024-03-23T14:46:08;7.10;99.90
8820;DHT22;4446;50.876;4.736;2024-03-23T14:48:37;7.30;99.90
8820;DHT22;4446;50.876;4.736;2024-03-23T14:51:04;7.40;99.90
8820;DHT22;4446;50.876;4.736;2024-03-23T14:53:32;7.50;99.90
8820;DHT22;4446;50.876;4.736;2024-03-23T14:55:59;7.50;99.90
8820;DHT22;4446;50.876;4.736;2024-03-23T14:58:27;7.50;99.90
8820;DHT22;4446;50.876;4.736;2024-03-23T15:00:53;7.70;99.90
8820;DHT22;4446;50.876;4.736;2024-03-23T15:03:20;7.80;99.90
8820;DHT22;4446;50.876;4.736;2024-03-23T15:05:57;7.90;99.90
8820;DHT22;4446;50.876;4.736;2024-03-23T15:08:25;8.40;99.90
8820;DHT22;4446;50.876;4.736;2024-03-23T15:10:53;8.70;99.90
8820;DHT22;4446;50.876;4.736;2024-03-23T15:13:20;9.00;99.90
8820;DHT22;4446;50.876;4.736;2024-03-23T15:15:48;9.10;99.90
8820;DHT22;4446;50.876;4.736;2024-03-23T15:18:17;9.20;99.90
8820;DHT22;4446;50.876;4.736;2024-03-23T15:20:53;9.20;99.90
8820;DHT22;4446;50.876;4.736;2024-03-23T15:23:21;9.30;99.90
8820;DHT22;4446;50.876;4.736;2024-03-23T15:25:54;9.20;99.90
8820;DHT22;4446;50.876;4.736;2024-03-23T15:28:20;9.40;99.90
8820;DHT22;4446;50.876;4.736;2024-03-23T15:30:47;10.10;99.90
8820;DHT22;4446;50.876;4.736;2024-03-23T15:33:13;10.70;99.90
8820;DHT22;4446;50.876;4.736;2024-03-23T15:35:40;11.10;99.90
8820;DHT22;4446;50.876;4.736;2024-03-23T15:38:08;11.30;99.90
8820;DHT22;4446;50.876;4.736;2024-03-23T15:40:39;11.30;99.90
8820;DHT22;4446;50.876;4.736;2024-03-23T15:43:05;11.40;99.90
8820;DHT22;4446;50.876;4.736;2024-03-23T15:45:32;11.20;99.90
8820;DHT22;4446;50.876;4.736;2024-03-23T15:47:58;10.80;99.90
8820;DHT22;4446;50.876;4.736;2024-03-23T15:50:26;10.40;99.90
8820;DHT22;4446;50.876;4.736;2024-03-23T15:52:52;10.10;99.90
8820;DHT22;4446;50.876;4.736;2024-03-23T15:55:22;9.70;99.90
8820;DHT22;4446;50.876;4.736;2024-03-23T15:57:48;9.50;99.90
8820;DHT22;4446;50.876;4.736;2024-03-23T16:00:16;9.30;99.90
8820;DHT22;4446;50.876;4.736;2024-03-23T16:02:42;9.20;99.90
8820;DHT22;4446;50.876;4.736;2024-03-23T16:05:11;9.10;99.90
8820;DHT22;4446;50.876;4.736;2024-03-23T16:07:37;9.10;99.90
8820;DHT22;4446;50.876;4.736;2024-03-23T16:10:06;9.00;99.90
8820;DHT22;4446;50.876;4.736;2024-03-23T16:12:36;8.80;99.90
8820;DHT22;4446;50.876;4.736;2024-03-23T16:15:04;8.80;99.90
8820;DHT22;4446;50.876;4.736;2024-03-23T16:17:31;8.80;99.90
8820;DHT22;4446;50.876;4.736;2024-03-23T16:20:02;8.90;99.90
8820;DHT22;4446;50.876;4.736;2024-03-23T16:22:28;9.00;99.90
8820;DHT22;4446;50.876;4.736;2024-03-23T16:24:55;9.00;99.90
8820;DHT22;4446;50.876;4.736;2024-03-23T16:27:21;9.00;99.90
8820;DHT22;4446;50.876;4.736;2024-03-23T16:29:50;8.80;99.90
8820;DHT22;4446;50.876;4.736;2024-03-23T16:32:16;8.60;99.90
8820;DHT22;4446;50.876;4.736;2024-03-23T16:34:43;8.50;99.90
8820;DHT22;4446;50.876;4.736;2024-03-23T16:37:09;8.30;99.90
8820;DHT22;4446;50.876;4.736;2024-03-23T16:39:36;8.20;99.90
8820;DHT22;4446;50.876;4.736;2024-03-23T16:42:03;8.10;99.90
8820;DHT22;4446;50.876;4.736;2024-03-23T16:44:30;8.00;99.90
8820;DHT22;4446;50.876;4.736;2024-03-23T16:46:58;8.00;99.90
8820;DHT22;4446;50.876;4.736;2024-03-23T16:49:25;8.00;99.90
8820;DHT22;4446;50.876;4.736;2024-03-23T16:51:54;8.00;99.90
8820;DHT22;4446;50.876;4.736;2024-03-23T16:54:21;8.00;99.90
8820;DHT22;4446;50.876;4.736;2024-03-23T16:56:48;8.00;99.90
8820;DHT22;4446;50.876;4.736;2024-03-23T16:59:15;7.90;99.90
8820;DHT22;4446;50.876;4.736;2024-03-23T17:01:41;7.90;99.90
8820;DHT22;4446;50.876;4.736;2024-03-23T17:04:10;7.90;99.90
8820;DHT22;4446;50.876;4.736;2024-03-23T17:06:36;7.90;99.90
8820;DHT22;4446;50.876;4.736;2024-03-23T17:09:05;7.90;99.90
8820;DHT22;4446;50.876;4.736;2024-03-23T17:11:31;7.90;99.90